• Join FlightAware (Why Join?)
  • Login
  • US Flag 
03:28PM EDT


 

Airport Tracker/Info


-or-


 

Live Flight TrackerFlight Track Log ✈ SWA232 ✈ 05-May-2013 ✈ KMHT - KMDW

Flight Track Log - Related Links

Times and Time Zones

All times are in EDT time to prevent confusion due to time zone crossing. See the SWA232 flight status page for this flight to view local times or setup timezone preferences in your user account.

Time Position Orientation Groundspeed Altitude Reporting Facility
EDT Latitude Longitude Course Direction KTS MPH feet Rate Location/Type
06:32AM 42.9500 -71.4167 North 166 191 1,200  Level KA90
06:33AM 43.0250 -71.4064 North 213 245 4,900 3,180 Climbing Boston Center
06:35AM 43.0644 -71.6217 284° West 277 319 11,900 3,480 Climbing Boston Center
06:36AM 43.0694 -71.7581 273° West 346 398 15,500 3,120 Climbing Boston Center
06:37AM 43.0742 -71.8831 273° West 367 422 18,200 2,520 Climbing Boston Center
06:38AM 43.0811 -72.0422 273° West 367 422 20,600 2,400 Climbing Boston Center
06:39AM 43.0878 -72.1956 273° West 388 447 23,000 2,340 Climbing Boston Center
06:40AM 43.0986 -72.3547 275° West 415 478 25,300 2,040 Climbing Boston Center
06:41AM 43.1069 -72.5197 274° West 431 496 27,100 1,740 Climbing Boston Center
06:42AM 43.1044 -72.6989 269° West 451 519 28,800 1,620 Climbing Boston Center
06:43AM 43.1061 -72.8753 271° West 465 535 30,400 1,380 Climbing Boston Center
06:44AM 43.1158 -73.0431 275° West 484 557 31,600 1,500 Climbing Boston Center
06:45AM 43.1189 -73.2253 271° West 489 563 33,400 1,740 Climbing Boston Center
06:46AM 43.1214 -73.4272 271° West 489 563 35,100 1,800 Climbing Boston Center
06:47AM 43.1258 -73.6064 272° West 484 557 37,000 1,800 Climbing Boston Center
06:48AM 43.1283 -73.7772 271° West 467 537 38,700 1,020 Climbing Boston Center
06:49AM 43.1325 -73.9481 272° West 461 531 39,100 600 Climbing Boston Center
06:50AM 43.1383 -74.1189 273° West 461 531 40,000 420 Climbing Boston Center
06:51AM 43.1419 -74.2925 272° West 461 531 40,000  Level Boston Center
06:52AM 43.1433 -74.4547 271° West 456 525 40,000  Level Boston Center
06:53AM 43.1486 -74.6258 272° West 451 519 40,000  Level Boston Center
06:54AM 43.1411 -74.7906 266° West 440 506 40,000  Level Boston Center
06:55AM 43.1106 -74.9514 255° West 440 506 40,000  Level Boston Center
06:56AM 43.0756 -75.1178 254° West 450 518 40,000  Level Boston Center
06:57AM 43.0422 -75.2811 254° West 450 518 40,000  Level Boston Center
06:58AM 43.0111 -75.4417 255° West 450 518 40,000  Level Boston Center
06:59AM 42.9775 -75.6044 254° West 450 518 40,000  Level Boston Center
07:00AM 42.9436 -75.7703 254° West 450 518 40,000  Level Boston Center
07:01AM 42.9119 -75.9272 255° West 450 518 40,000  Level Boston Center
07:03AM 42.8325 -76.2850 253° West 440 506 40,000  Level Cleveland Center
07:04AM 42.8008 -76.4456 255° West 435 501 40,000  Level Cleveland Center
07:05AM 42.7669 -76.6036 254° West 440 506 40,000  Level Cleveland Center
07:06AM 42.7289 -76.7756 253° West 440 506 40,000  Level Cleveland Center
07:07AM 42.6944 -76.9331 253° West 440 506 40,000  Level Cleveland Center
07:08AM 42.6597 -77.0906 253° West 440 506 40,000  Level Cleveland Center
07:09AM 42.6247 -77.2506 253° West 440 506 40,000  Level Cleveland Center
07:10AM 42.5894 -77.4075 253° West 440 506 40,000  Level Cleveland Center
07:11AM 42.5581 -77.5528 254° West 445 512 40,000  Level Cleveland Center
07:12AM 42.5203 -77.7097 252° West 445 512 40,000  Level Cleveland Center
07:13AM 42.4825 -77.8719 253° West 445 512 40,000  Level Cleveland Center
07:14AM 42.4486 -78.0281 254° West 445 512 40,000  Level Cleveland Center
07:15AM 42.4125 -78.1872 253° West 445 512 40,000  Level Cleveland Center
07:16AM 42.3758 -78.3431 252° West 445 512 40,000  Level Cleveland Center
07:17AM 42.3394 -78.5017 253° West 445 512 40,000  Level Cleveland Center
07:18AM 42.3025 -78.6600 253° West 445 512 40,000  Level Cleveland Center
07:19AM 42.2633 -78.8156 251° West 445 512 40,000  Level Cleveland Center
07:20AM 42.2261 -78.9736 252° West 445 512 40,000  Level Cleveland Center
07:21AM 42.1883 -79.1289 252° West 445 512 40,000  Level Cleveland Center
07:22AM 42.1486 -79.2836 251° West 440 506 40,000  Level Cleveland Center
07:23AM 42.1064 -79.4386 250° West 445 512 40,000  Level Cleveland Center
07:24AM 42.0642 -79.6097 252° West 445 512 40,000  Level Cleveland Center
07:25AM 42.0217 -79.7669 250° West 445 512 40,000  Level Cleveland Center
07:26AM 41.9811 -79.9183 250° West 445 512 40,000  Level Cleveland Center
07:27AM 41.9422 -80.0583 250° West 451 519 40,000  Level Cleveland Center
07:28AM 41.9011 -80.2094 250° West 444 511 40,000  Level Cleveland Center
07:29AM 41.8617 -80.3572 250° West 437 503 40,000  Level Cleveland Center
07:30AM 41.8203 -80.5136 250° West 437 503 40,000  Level Cleveland Center
07:31AM 41.7744 -80.6806 250° West 445 512 40,000  Level Cleveland Center
07:32AM 41.7325 -80.8364 250° West 445 512 40,000  Level Cleveland Center
07:33AM 41.6903 -80.9864 249° West 445 512 40,000  Level Cleveland Center
07:34AM 41.6481 -81.1361 249° West 445 512 40,000  Level Cleveland Center
07:35AM 41.6056 -81.2914 250° West 445 512 40,000  Level Cleveland Center
07:36AM 41.5628 -81.4433 249° West 451 519 40,000  Level Cleveland Center
07:37AM 41.5219 -81.5953 250° West 444 511 40,000  Level Cleveland Center
07:38AM 41.4786 -81.7528 250° West 450 518 40,000  Level Cleveland Center
07:39AM 41.4311 -81.9042 247° West 450 518 40,000  Level Cleveland Center
07:40AM 41.3875 -82.0583 249° West 450 518 40,000  Level Cleveland Center
07:41AM 41.3603 -82.2208 257° West 451 519 40,000  Level Cleveland Center
07:42AM 41.3706 -82.3844 275° West 444 511 40,000  Level Cleveland Center
07:43AM 41.3803 -82.5508 275° West 454 522 40,000  Level Cleveland Center
07:44AM 41.3897 -82.7197 274° West 459 528 40,000  Level Cleveland Center
07:45AM 41.3969 -82.8861 273° West 459 528 40,000  Level Cleveland Center
07:46AM 41.4061 -83.0417 275° West 465 535 40,000  Level Cleveland Center
07:47AM 41.4128 -83.2053 273° West 459 528 40,000  Level Cleveland Center
07:48AM 41.4214 -83.3772 274° West 465 535 40,000  Level Cleveland Center
07:49AM 41.4297 -83.5439 274° West 465 535 40,000  Level Cleveland Center
07:50AM 41.4397 -83.7133 275° West 465 535 40,000  Level Cleveland Center
07:51AM 41.4453 -83.8853 273° West 465 535 40,000 -960 Level Cleveland Center
07:53AM 41.4625 -84.2019 274° West 454 522 37,200 -2,160 Descending Chicago Center
07:54AM 41.4719 -84.4089 274° West 466 536 33,600 -3,240 Descending Chicago Center
07:55AM 41.4783 -84.5861 273° West 476 548 30,700 -1,800 Descending Chicago Center
07:56AM 41.4853 -84.7547 273° West 461 531 30,000 -360 Descending Chicago Center
07:57AM 41.4906 -84.9211 272° West 451 519 30,000 -240 Level Chicago Center
07:58AM 41.4967 -85.0875 273° West 450 518 29,500 -1,440 Descending Chicago Center
07:59AM 41.5014 -85.2525 272° West 445 512 27,000 -2,400 Descending Chicago Center
08:00AM 41.5056 -85.4153 272° West 433 498 24,700 -1,920 Descending Chicago Center
08:01AM 41.5119 -85.5728 273° West 415 478 23,100 -1,680 Descending Chicago Center
08:03AM 41.5167 -85.7261 272° West 411 473 21,400 -1,980 Descending Chicago Center
08:04AM 41.5206 -85.8781 272° West 406 467 19,100 -2,100 Descending Chicago Center
08:05AM 41.5239 -86.0256 272° West 399 459 17,200 -1,920 Descending Chicago Center
08:06AM 41.5244 -86.1675 270° West 386 444 15,200 -2,340 Descending Chicago Center
08:07AM 41.5228 -86.3056 269° West 375 432 12,500 -2,580 Descending Chicago Center
08:08AM 41.5217 -86.4753 270° West 382 440 10,000 -1,260 Descending Chicago Center
08:09AM 41.5211 -86.6036 270° West 352 405 10,000  Level Chicago Center
08:10AM 41.5206 -86.7117 270° West 340 391 10,000 -540 Level Chicago Center
08:11AM 41.5203 -86.8508 270° West 316 364 8,900 -1,080 Descending Chicago Center
08:12AM 41.5181 -86.9617 269° West 303 349 7,900 -1,020 Descending Chicago Center
08:13AM 41.5167 -87.0731 269° West 302 348 6,900 -960 Descending Chicago Center
08:14AM 41.5150 -87.1822 269° West 299 344 6,000 -660 Descending Chicago Center
08:15AM 41.5156 -87.2886 270° West 291 335 5,600 -600 Descending Chicago Center
08:16AM 41.5131 -87.3950 268° West 289 333 4,800 -840 Descending Chicago Center
08:17AM 41.5119 -87.4994 269° West 286 329 4,000 -420 Descending Chicago Center
08:18AM 41.5219 -87.6003 278° West 285 328 4,000 -60 Level Chicago Center
08:19AM 41.5453 -87.6981 288° West 282 325 3,900 -540 Descending Chicago Center
08:20AM 41.5992 -87.7969 306° West 278 320 3,000 -480 Descending Chicago Center
08:21AM 41.6333 -87.8500 311° West 240 276 3,000 -240 Level Chicago TRACON
08:22AM 41.7000 -87.8500 360° North 194 223 2,600 -540 Descending Chicago TRACON
08:23AM 41.7333 -87.8167 37° Northeast 160 184 2,000 -660 Descending Chicago TRACON
08:24AM 41.7500 -87.7833 56° Northeast 127 146 1,300 -720 Descending Chicago TRACON